Time;durP1;ratioP1;P1;durP2;ratioP2;P2;SDS_P1;SDS_P2;PMS_P1;PMS_P2;Temp;Humidity;BMP_temperature;BMP_pressure;BME280_temperature;BME280_humidity;BME280_pressure;Samples;Min_cycle;Max_cycle;Signal;HPM_P1;HPM_P2
2022/07/28 00:00:06;;;;;;;3.70;2.90;;;;;;;19.93;95.96;99718.31;1719089;82;21055;-67
2022/07/28 00:02:32;;;;;;;4.83;3.08;;;;;;;19.88;95.65;99707.52;1723666;82;21583;-67
2022/07/28 00:04:59;;;;;;;3.65;3.10;;;;;;;19.85;95.81;99714.97;1723039;82;20995;-71
2022/07/28 00:07:25;;;;;;;3.20;2.90;;;;;;;19.80;95.62;99704.17;1714831;82;21156;-69
2022/07/28 00:09:52;;;;;;;8.65;3.47;;;;;;;19.77;95.35;99697.95;1696006;82;21111;-71
2022/07/28 00:12:19;;;;;;;3.25;2.85;;;;;;;19.77;95.35;99697.95;1721993;82;22115;-70
2022/07/28 00:14:47;;;;;;;3.30;2.90;;;;;;;19.76;95.11;99697.73;1715764;83;21052;-69
2022/07/28 00:17:14;;;;;;;2.92;2.72;;;;;;;19.75;94.53;99705.66;1721494;82;21009;-69
2022/07/28 00:19:42;;;;;;;3.77;2.90;;;;;;;19.73;93.87;99710.05;1732034;82;21015;-68
2022/07/28 00:22:09;;;;;;;3.17;2.83;;;;;;;19.72;93.67;99714.45;1714679;82;21079;-69
2022/07/28 00:24:36;;;;;;;2.62;2.30;;;;;;;19.71;93.24;99717.73;1713190;82;21046;-69
2022/07/28 00:27:06;;;;;;;3.12;2.92;;;;;;;19.72;92.66;99718.55;1715240;82;21525;-70
2022/07/28 00:29:34;;;;;;;4.60;2.70;;;;;;;19.72;92.62;99728.09;1703842;84;21090;-69
2022/07/28 00:32:02;;;;;;;3.98;2.15;;;;;;;19.73;92.08;99727.80;1703597;82;21040;-70
2022/07/28 00:34:29;;;;;;;2.62;2.42;;;;;;;19.73;91.87;99726.98;1709814;82;21009;-70
2022/07/28 00:36:56;;;;;;;4.70;2.20;;;;;;;19.72;91.62;99717.98;1725285;82;21150;-69
2022/07/28 00:39:23;;;;;;;2.20;2.00;;;;;;;19.74;91.42;99724.52;1699275;82;21020;-68
2022/07/28 00:41:50;;;;;;;2.37;2.10;;;;;;;19.73;91.27;99717.44;1725823;82;20971;-70
2022/07/28 00:44:17;;;;;;;2.30;2.10;;;;;;;19.72;91.37;99701.61;1671603;84;21070;-70
2022/07/28 00:46:44;;;;;;;3.60;2.75;;;;;;;19.72;91.37;99701.61;1719231;82;21016;-70
2022/07/28 00:49:12;;;;;;;4.50;2.70;;;;;;;19.73;91.33;99708.69;1722898;82;22051;-70
2022/07/28 00:51:39;;;;;;;3.20;2.27;;;;;;;19.74;91.58;99713.59;1698209;82;21027;-70
2022/07/28 00:54:06;;;;;;;2.87;2.60;;;;;;;19.72;91.76;99702.17;1686400;82;21130;-70
2022/07/28 00:56:33;;;;;;;2.90;2.58;;;;;;;19.72;91.84;99709.80;1698836;82;20999;-70
2022/07/28 00:59:00;;;;;;;2.70;2.50;;;;;;;19.70;91.93;99714.78;1723299;83;21034;-71
2022/07/28 01:01:27;;;;;;;2.52;2.20;;;;;;;19.71;91.94;99716.37;1717297;82;21240;-70
2022/07/28 01:04:00;;;;;;;4.20;2.92;;;;;;;19.71;92.15;99721.05;1717097;81;20991;-70
2022/07/28 01:07:02;;;;;;;;;;;;;;;19.71;92.15;99721.05;1708921;81;21703;-70
2022/07/28 01:10:13;;;;;;;4.37;3.47;;;;;;;19.72;92.19;99719.35;1703887;83;20101;-71
2022/07/28 01:13:08;;;;;;;4.70;3.50;;;;;;;19.71;92.09;99720.46;1700707;83;21068;-70
2022/07/28 01:15:41;;;;;;;5.50;3.27;;;;;;;19.69;91.99;99719.98;1705662;82;21166;-70
2022/07/28 01:18:19;;;;;;;5.28;3.08;;;;;;;19.67;92.00;99724.92;1728583;82;21503;-69
2022/07/28 01:21:04;;;;;;;3.60;3.05;;;;;;;19.65;91.59;99724.45;1721727;82;21489;-70
2022/07/28 01:23:43;;;;;;;4.83;3.47;;;;;;;19.65;91.57;99728.55;1698560;81;21011;-72
2022/07/28 01:26:27;;;;;;;4.08;3.65;;;;;;;19.65;91.44;99724.45;1720801;81;21015;-72
2022/07/28 01:29:12;;;;;;;8.75;4.10;;;;;;;19.63;91.47;99728.58;1717352;81;21158;-70
2022/07/28 01:31:42;;;;;;;4.72;3.87;;;;;;;19.59;91.55;99721.03;1717484;82;21017;-70
2022/07/28 01:34:22;;;;;;;5.78;4.12;;;;;;;19.55;91.52;99725.49;1701889;82;21541;-70
2022/07/28 01:37:01;;;;;;;5.28;3.90;;;;;;;19.51;91.68;99718.23;1730898;82;21062;-69
2022/07/28 01:39:31;;;;;;;3.65;3.35;;;;;;;19.47;91.80;99719.38;1705503;82;21015;-71
2022/07/28 01:41:57;;;;;;;6.12;3.92;;;;;;;19.43;92.04;99716.99;1711967;82;21098;-71
2022/07/28 01:44:25;;;;;;;5.70;3.77;;;;;;;19.43;91.99;99718.91;1713272;82;20964;-70
2022/07/28 01:46:52;;;;;;;6.15;4.17;;;;;;;19.40;92.32;99718.17;1712412;82;22358;-69
2022/07/28 01:49:20;;;;;;;10.05;4.55;;;;;;;19.38;92.51;99722.56;1707922;81;21084;-71
2022/07/28 01:51:47;;;;;;;9.70;4.87;;;;;;;19.34;92.92;99727.58;1721330;81;21248;-70
2022/07/28 01:54:14;;;;;;;6.97;4.25;;;;;;;19.27;93.25;99725.84;1725572;82;21329;-71
2022/07/28 01:56:42;;;;;;;5.55;4.17;;;;;;;19.20;93.67;99728.16;1696712;84;21031;-71
2022/07/28 01:59:11;;;;;;;4.25;3.42;;;;;;;19.14;94.12;99732.91;1691766;83;21038;-71
2022/07/28 02:01:43;;;;;;;7.87;4.05;;;;;;;19.08;94.56;99734.96;1702394;83;21119;-73
2022/07/28 02:04:10;;;;;;;6.00;4.58;;;;;;;19.02;94.90;99740.27;1700514;82;21024;-70
2022/07/28 02:06:37;;;;;;;7.53;4.12;;;;;;;18.99;95.27;99746.30;1707199;81;22177;-73
2022/07/28 02:09:04;;;;;;;4.28;3.92;;;;;;;18.98;95.60;99745.27;1722708;81;21021;-71
2022/07/28 02:11:41;;;;;;;5.62;4.42;;;;;;;18.97;95.89;99750.45;1688817;82;21063;-70
2022/07/28 02:14:17;;;;;;;6.08;4.10;;;;;;;18.93;96.08;99749.45;1697142;83;21552;-70
2022/07/28 02:16:50;;;;;;;5.92;3.95;;;;;;;18.88;96.42;99749.55;1718682;82;21047;-70
2022/07/28 02:19:17;;;;;;;6.05;4.95;;;;;;;18.80;96.92;99759.22;1721807;82;21305;-69
2022/07/28 02:21:48;;;;;;;5.03;4.53;;;;;;;18.75;97.51;99760.72;1718348;83;21024;-70
2022/07/28 02:24:21;;;;;;;8.20;4.08;;;;;;;18.71;97.93;99759.67;1680850;83;21036;-71
2022/07/28 02:26:59;;;;;;;6.30;4.12;;;;;;;18.69;98.31;99772.81;1722956;83;20999;-70
2022/07/28 02:29:27;;;;;;;4.97;4.17;;;;;;;18.66;98.74;99760.58;1722905;82;21074;-71
2022/07/28 02:32:06;;;;;;;4.08;3.67;;;;;;;18.65;99.02;99764.44;1707246;82;21158;-70
2022/07/28 02:34:32;;;;;;;8.33;4.22;;;;;;;18.65;99.24;99763.08;1656269;83;21569;-69
2022/07/28 02:37:01;;;;;;;3.33;3.02;;;;;;;18.64;99.50;99753.83;1715255;82;21039;-69
2022/07/28 02:39:32;;;;;;;4.87;3.62;;;;;;;18.62;99.69;99755.48;1708430;82;21095;-68
2022/07/28 02:42:06;;;;;;;4.50;3.95;;;;;;;18.62;99.88;99761.48;1719713;82;21050;-70
2022/07/28 02:44:38;;;;;;;6.65;4.15;;;;;;;18.62;99.91;99762.84;1721045;82;21239;-69
2022/07/28 02:47:08;;;;;;;4.00;3.60;;;;;;;18.60;99.94;99759.08;1713498;82;21011;-70
2022/07/28 02:49:36;;;;;;;3.45;3.15;;;;;;;18.62;99.90;99771.02;1699023;83;20999;-73
2022/07/28 02:52:06;;;;;;;5.83;4.53;;;;;;;18.61;99.85;99772.13;1717951;82;21027;-68
2022/07/28 02:54:34;;;;;;;4.28;3.87;;;;;;;18.58;99.85;99778.19;1687505;82;21071;-69
2022/07/28 02:57:03;;;;;;;4.47;4.08;;;;;;;18.59;99.94;99777.89;1720785;83;20960;-69
2022/07/28 02:59:30;;;;;;;4.30;3.87;;;;;;;18.59;99.89;99786.62;1713936;83;21040;-69
2022/07/28 03:01:57;;;;;;;5.72;3.87;;;;;;;18.60;99.99;99784.16;1722960;83;21542;-71
2022/07/28 03:07:10;;;;;;;4.80;3.87;;;;;;;18.62;99.91;99774.55;1709849;83;21075;-70
2022/07/28 03:09:45;;;;;;;3.65;3.35;;;;;;;18.66;99.65;99774.75;1680167;83;20967;-71
2022/07/28 03:12:12;;;;;;;4.37;3.83;;;;;;;18.65;99.35;99776.70;1707329;83;20972;-69
2022/07/28 03:14:39;;;;;;;5.85;3.22;;;;;;;18.64;99.30;99783.80;1713973;82;21511;-72
2022/07/28 03:17:06;;;;;;;4.10;3.47;;;;;;;18.65;98.97;99786.78;1717042;81;21107;-70
2022/07/28 03:19:34;;;;;;;5.00;4.10;;;;;;;18.62;98.79;99784.64;1723936;82;21131;-68
2022/07/28 03:22:00;;;;;;;5.37;3.98;;;;;;;18.62;98.61;99792.27;1719759;82;21243;-70
2022/07/28 03:24:35;;;;;;;5.62;3.45;;;;;;;18.62;98.46;99792.27;1700726;82;21034;-70
2022/07/28 03:27:31;;;;;;;6.10;3.77;;;;;;;18.62;98.31;99794.98;1692204;83;21087;-72
2022/07/28 03:30:12;;;;;;;4.33;3.20;;;;;;;18.62;98.11;99795.54;1713847;81;21054;-70
2022/07/28 03:32:46;;;;;;;3.92;3.55;;;;;;;18.66;97.89;99797.36;1704297;83;21035;-70
2022/07/28 03:35:13;;;;;;;6.85;3.60;;;;;;;18.67;97.32;99798.98;1722275;82;21840;-70
2022/07/28 03:38:00;;;;;;;4.62;3.55;;;;;;;18.67;96.77;99791.36;1721345;82;20982;-71
2022/07/28 03:40:28;;;;;;;4.25;3.45;;;;;;;18.63;96.29;99789.80;1672934;84;21048;-70
2022/07/28 03:42:56;;;;;;;3.85;3.55;;;;;;;18.61;96.23;99795.28;1721691;82;21000;-69
2022/07/28 03:45:23;;;;;;;4.12;3.50;;;;;;;18.59;96.10;99783.89;1698649;82;21019;-71
2022/07/28 03:47:55;;;;;;;3.37;3.17;;;;;;;18.61;96.08;99783.02;1730978;81;21157;-71
2022/07/28 03:50:27;;;;;;;6.10;3.80;;;;;;;18.60;95.75;99786.33;1716734;82;21098;-69
2022/07/28 03:52:55;;;;;;;5.10;4.60;;;;;;;18.60;95.61;99785.52;1711284;81;21031;-68
2022/07/28 03:55:23;;;;;;;3.92;3.52;;;;;;;18.58;95.51;99783.63;1701603;82;21511;-71
2022/07/28 03:57:51;;;;;;;3.80;3.42;;;;;;;18.59;95.50;99786.62;1705055;83;21029;-68
2022/07/28 04:00:19;;;;;;;3.72;3.42;;;;;;;18.60;95.38;99792.33;1720359;82;21402;-69
2022/07/28 04:02:46;;;;;;;4.08;3.67;;;;;;;18.61;95.20;99791.19;1695236;83;21035;-72
2022/07/28 04:05:16;;;;;;;3.37;2.87;;;;;;;18.61;94.78;99792.00;1683329;84;21047;-70
2022/07/28 04:07:47;;;;;;;6.55;3.85;;;;;;;18.62;94.64;99791.45;1725152;81;21027;-71
2022/07/28 04:10:15;;;;;;;3.80;3.45;;;;;;;18.65;94.27;99794.95;1714886;81;21087;-71
2022/07/28 04:12:54;;;;;;;4.55;2.85;;;;;;;18.68;93.72;99798.44;1720122;81;21208;-70
2022/07/28 04:15:22;;;;;;;4.47;3.47;;;;;;;18.71;93.24;99806.00;1691587;83;21086;-71
2022/07/28 04:17:49;;;;;;;3.70;2.95;;;;;;;18.73;92.76;99805.16;1729802;82;21026;-72
2022/07/28 04:20:17;;;;;;;5.42;2.85;;;;;;;18.75;91.99;99804.86;1718257;82;21564;-71
2022/07/28 04:22:47;;;;;;;3.02;2.47;;;;;;;18.76;90.57;99811.35;1717896;81;20999;-70
2022/07/28 04:25:15;;;;;;;6.75;3.45;;;;;;;18.76;89.04;99806.45;1710064;81;21247;-68
2022/07/28 04:27:42;;;;;;;5.85;3.50;;;;;;;18.73;87.37;99814.14;1707502;82;21079;-70
2022/07/28 04:30:13;;;;;;;4.37;3.22;;;;;;;18.75;87.29;99811.13;1696056;82;20936;-68
2022/07/28 04:32:40;;;;;;;4.58;3.90;;;;;;;18.81;86.92;99821.35;1715637;82;21190;-68
2022/07/28 04:35:08;;;;;;;6.97;2.62;;;;;;;18.85;86.28;99819.67;1713378;82;21011;-71
2022/07/28 04:37:36;;;;;;;4.62;3.15;;;;;;;18.88;85.06;99820.42;1693983;84;21840;-70
2022/07/28 04:40:05;;;;;;;3.37;2.83;;;;;;;18.93;84.45;99823.05;1701349;82;21120;-68
2022/07/28 04:42:35;;;;;;;6.92;3.75;;;;;;;18.97;82.70;99835.77;1693401;83;20988;-70
2022/07/28 04:45:03;;;;;;;4.42;2.70;;;;;;;19.00;81.46;99833.80;1698750;84;21015;-67
2022/07/28 04:47:30;;;;;;;5.05;3.10;;;;;;;19.03;81.00;99831.03;1714058;82;20996;-69
2022/07/28 04:49:57;;;;;;;4.03;2.62;;;;;;;19.05;80.60;99835.06;1712539;82;21251;-70
2022/07/28 04:52:25;;;;;;;6.03;3.02;;;;;;;19.06;80.17;99831.78;1687455;84;21025;-69
2022/07/28 04:54:52;;;;;;;4.22;3.22;;;;;;;19.09;80.34;99835.26;1682994;84;21088;-68
2022/07/28 04:57:21;;;;;;;5.65;2.47;;;;;;;19.14;80.29;99840.61;1692862;83;20952;-67
2022/07/28 04:59:47;;;;;;;4.95;3.42;;;;;;;19.18;79.40;99846.52;1686749;82;21063;-68
2022/07/28 05:02:14;;;;;;;3.87;3.17;;;;;;;19.22;77.98;99847.30;1650907;84;22010;-70
2022/07/28 05:04:43;;;;;;;4.35;2.60;;;;;;;19.24;76.24;99843.14;1689182;84;21039;-69
2022/07/28 05:07:11;;;;;;;3.45;2.62;;;;;;;19.24;73.47;99853.23;1692101;84;20987;-69
2022/07/28 05:09:39;;;;;;;6.37;2.92;;;;;;;19.19;72.52;99852.78;1688483;84;21611;-69
2022/07/28 05:12:07;;;;;;;5.30;3.40;;;;;;;19.16;72.58;99854.21;1731199;82;21098;-68
2022/07/28 05:14:34;;;;;;;6.20;3.15;;;;;;;19.15;72.96;99853.95;1730680;82;21814;-69
2022/07/28 05:17:03;;;;;;;8.13;4.12;;;;;;;19.18;73.39;99856.65;1728653;81;20999;-69
2022/07/28 05:19:30;;;;;;;5.85;2.80;;;;;;;19.23;73.50;99851.65;1714685;82;20960;-69
2022/07/28 05:21:57;;;;;;;4.75;3.15;;;;;;;19.26;72.85;99857.84;1681457;84;21107;-69
2022/07/28 05:24:24;;;;;;;4.40;3.12;;;;;;;19.32;72.74;99857.45;1667955;84;21036;-69
2022/07/28 05:26:52;;;;;;;7.30;3.95;;;;;;;19.37;72.88;99855.18;1693629;84;21223;-70
2022/07/28 05:29:20;;;;;;;3.62;2.55;;;;;;;19.44;72.56;99865.95;1702681;82;20952;-70
2022/07/28 05:31:47;;;;;;;4.22;2.35;;;;;;;19.49;71.57;99869.94;1726595;81;21079;-69
2022/07/28 05:34:16;;;;;;;10.28;3.35;;;;;;;19.52;70.92;99864.42;1728442;82;20956;-70
2022/07/28 05:36:42;;;;;;;4.75;3.05;;;;;;;19.51;70.49;99859.55;1733606;82;20983;-69
2022/07/28 05:39:09;;;;;;;5.33;3.12;;;;;;;19.53;70.29;99875.59;1732363;82;21155;-69
2022/07/28 05:41:37;;;;;;;3.83;3.42;;;;;;;19.54;69.72;99873.13;1705646;82;21016;-69
2022/07/28 05:44:04;;;;;;;4.20;3.42;;;;;;;19.55;69.72;99863.28;1694275;84;21071;-70
2022/07/28 05:46:31;;;;;;;4.78;3.30;;;;;;;19.56;69.67;99870.36;1672648;84;21035;-69
2022/07/28 05:48:58;;;;;;;4.53;3.62;;;;;;;19.61;69.86;99872.17;1697664;83;21110;-70
2022/07/28 05:51:26;;;;;;;9.98;3.62;;;;;;;19.63;69.83;99867.20;1688277;83;21467;-69
2022/07/28 05:53:53;;;;;;;4.35;3.20;;;;;;;19.68;70.12;99865.73;1725661;81;20976;-68
2022/07/28 05:56:22;;;;;;;4.50;3.10;;;;;;;19.72;70.49;99865.36;1730155;83;20926;-69
2022/07/28 05:58:49;;;;;;;7.55;4.08;;;;;;;19.75;70.89;99864.77;1725302;82;20979;-67
2022/07/28 06:01:18;;;;;;;8.30;3.58;;;;;;;19.81;70.52;99878.54;1708192;82;21065;-69
2022/07/28 06:03:48;;;;;;;8.40;4.10;;;;;;;19.86;70.32;99888.53;1725111;82;21498;-69
2022/07/28 06:06:14;;;;;;;6.45;3.87;;;;;;;19.90;70.31;99890.93;1712592;82;21111;-69
2022/07/28 06:08:42;;;;;;;6.55;3.40;;;;;;;19.90;69.39;99894.44;1721189;82;21023;-70
2022/07/28 06:11:10;;;;;;;5.92;4.03;;;;;;;19.94;69.55;99908.31;1728416;82;21091;-69
2022/07/28 06:13:39;;;;;;;4.22;3.17;;;;;;;19.96;69.04;99897.31;1711694;82;21032;-70
2022/07/28 06:16:07;;;;;;;5.17;2.50;;;;;;;20.01;68.49;99898.57;1705803;81;21065;-68
2022/07/28 06:18:35;;;;;;;6.25;3.75;;;;;;;20.05;67.58;99902.08;1714829;81;21043;-71
2022/07/28 06:21:03;;;;;;;4.87;3.10;;;;;;;20.08;67.67;99899.53;1712598;82;20995;-70
2022/07/28 06:23:30;;;;;;;5.30;2.65;;;;;;;20.11;67.40;99896.72;1705219;81;21024;-70
2022/07/28 06:25:57;;;;;;;4.40;2.95;;;;;;;20.14;66.86;99903.77;1699963;82;21022;-70
2022/07/28 06:28:25;;;;;;;5.45;2.25;;;;;;;20.18;66.60;99909.41;1708646;83;21295;-70
2022/07/28 06:30:51;;;;;;;5.83;2.75;;;;;;;20.23;65.07;99919.67;1699556;82;21031;-72
2022/07/28 06:33:18;;;;;;;4.62;3.02;;;;;;;20.23;65.07;99919.67;1720721;81;20955;-72
2022/07/28 06:35:47;;;;;;;8.55;4.85;;;;;;;20.25;65.64;99911.95;1724368;81;21150;-71
2022/07/28 06:38:13;;;;;;;8.65;4.20;;;;;;;20.29;65.06;99918.97;1715209;83;21010;-70
2022/07/28 06:40:42;;;;;;;6.40;2.87;;;;;;;20.34;65.27;99931.18;1707488;83;21134;-70
2022/07/28 06:43:13;;;;;;;5.28;2.47;;;;;;;20.42;64.70;99925.00;1719137;81;21064;-71
2022/07/28 06:45:39;;;;;;;3.95;2.52;;;;;;;20.46;62.71;99932.83;1717634;82;21046;-71
2022/07/28 06:48:07;;;;;;;4.78;2.40;;;;;;;20.51;62.49;99918.23;1680300;84;21135;-71
2022/07/28 06:50:38;;;;;;;4.67;3.05;;;;;;;20.55;62.61;99917.30;1700530;82;21063;-70
2022/07/28 06:53:04;;;;;;;3.72;2.02;;;;;;;20.60;62.82;99917.73;1723053;82;21867;-71
2022/07/28 06:55:32;;;;;;;3.05;2.35;;;;;;;20.63;62.44;99941.14;1684473;84;22162;-71
2022/07/28 06:58:01;;;;;;;3.90;2.37;;;;;;;20.70;61.40;99928.42;1704652;83;20999;-72
2022/07/28 07:00:29;;;;;;;3.75;2.00;;;;;;;20.76;61.57;99938.94;1709281;82;21051;-72
2022/07/28 07:02:56;;;;;;;2.72;1.75;;;;;;;20.80;60.32;99936.38;1733226;82;21074;-72
2022/07/28 07:05:24;;;;;;;6.30;1.95;;;;;;;20.82;59.86;99930.83;1726960;82;21166;-69
2022/07/28 07:07:51;;;;;;;3.95;2.17;;;;;;;20.84;60.17;99931.34;1700627;83;21003;-70
2022/07/28 07:10:18;;;;;;;2.75;1.90;;;;;;;20.87;60.17;99932.63;1691905;83;20993;-70
2022/07/28 07:12:47;;;;;;;9.30;3.00;;;;;;;20.89;60.21;99938.05;1714314;83;21059;-69
2022/07/28 07:15:17;;;;;;;3.95;2.40;;;;;;;20.95;60.52;99939.30;1667687;83;20975;-71
2022/07/28 07:17:43;;;;;;;5.08;2.40;;;;;;;20.97;60.97;99937.03;1664574;84;21244;-71
2022/07/28 07:20:13;;;;;;;5.50;2.25;;;;;;;21.01;61.46;99935.28;1701640;82;21597;-71
2022/07/28 07:22:46;;;;;;;3.15;2.62;;;;;;;21.04;61.54;99936.86;1701077;83;21040;-70
2022/07/28 07:25:18;;;;;;;2.22;2.10;;;;;;;21.10;61.38;99936.17;1696027;84;21625;-71
2022/07/28 07:27:45;;;;;;;4.47;2.22;;;;;;;21.10;61.40;99932.06;1699398;82;21036;-70
2022/07/28 07:30:14;;;;;;;5.47;3.58;;;;;;;21.13;61.61;99932.80;1706105;82;21384;-69
2022/07/28 07:32:42;;;;;;;6.17;3.05;;;;;;;21.18;61.99;99920.38;1680073;83;21035;-68
2022/07/28 07:35:11;;;;;;;5.87;2.85;;;;;;;21.25;61.85;99927.01;1711057;82;21048;-69
2022/07/28 07:37:38;;;;;;;5.65;3.22;;;;;;;21.33;61.46;99922.72;1693498;82;20966;-71
2022/07/28 07:40:08;;;;;;;5.10;2.10;;;;;;;21.38;61.22;99923.95;1687503;82;21069;-71
2022/07/28 07:42:35;;;;;;;3.05;2.10;;;;;;;21.44;61.41;99933.61;1689007;84;21527;-69
2022/07/28 07:45:03;;;;;;;3.27;2.00;;;;;;;21.51;60.57;99926.32;1684643;83;20999;-70
2022/07/28 07:47:32;;;;;;;4.75;2.27;;;;;;;21.56;60.52;99935.20;1697406;83;21019;-68
2022/07/28 07:49:59;;;;;;;3.35;2.05;;;;;;;21.60;60.58;99929.33;1695170;82;21096;-68
2022/07/28 07:52:26;;;;;;;3.05;2.27;;;;;;;21.62;59.42;99923.55;1705997;82;21075;-69
2022/07/28 07:54:53;;;;;;;3.67;2.47;;;;;;;21.68;59.27;99944.16;1692761;83;21257;-71
2022/07/28 07:57:20;;;;;;;6.10;2.60;;;;;;;21.72;58.42;99937.77;1711902;82;21024;-71
2022/07/28 07:59:48;;;;;;;4.92;2.70;;;;;;;21.74;57.33;99943.71;1677185;84;21060;-69
2022/07/28 08:02:16;;;;;;;3.87;2.92;;;;;;;21.75;56.90;99949.44;1665319;85;21467;-67
2022/07/28 08:04:43;;;;;;;5.45;2.35;;;;;;;21.79;56.58;99946.05;1675961;84;21112;-68
2022/07/28 08:07:10;;;;;;;5.85;2.45;;;;;;;21.78;57.72;99947.98;1700171;83;21148;-69
2022/07/28 08:09:37;;;;;;;3.20;1.40;;;;;;;21.82;57.92;99949.55;1693054;84;21016;-69
2022/07/28 08:12:06;;;;;;;2.45;1.75;;;;;;;21.88;58.32;99949.06;1665692;84;20963;-69
2022/07/28 08:14:33;;;;;;;3.17;2.00;;;;;;;21.96;58.72;99948.33;1710625;82;20940;-69
2022/07/28 08:17:00;;;;;;;2.95;1.82;;;;;;;22.00;58.40;99947.12;1698506;83;21047;-69
2022/07/28 08:19:27;;;;;;;5.25;2.33;;;;;;;22.05;56.70;99963.41;1697077;83;21150;-69
2022/07/28 08:21:54;;;;;;;2.67;1.30;;;;;;;22.10;55.24;99962.70;1708841;82;21083;-68
2022/07/28 08:24:21;;;;;;;2.80;1.70;;;;;;;22.10;55.97;99968.73;1701386;83;21091;-68
2022/07/28 08:26:50;;;;;;;3.77;2.58;;;;;;;22.07;55.53;99956.47;1699590;82;21106;-69
2022/07/28 08:29:16;;;;;;;3.27;1.87;;;;;;;22.08;56.03;99947.13;1697939;82;21002;-70
2022/07/28 08:31:44;;;;;;;3.62;1.95;;;;;;;22.10;56.55;99948.19;1713476;82;21980;-69
2022/07/28 08:34:11;;;;;;;3.02;1.55;;;;;;;22.13;56.76;99957.94;1721070;82;20988;-68
2022/07/28 08:36:38;;;;;;;3.42;1.12;;;;;;;22.21;54.14;99970.02;1710962;82;21612;-69
2022/07/28 08:39:05;;;;;;;7.10;1.87;;;;;;;22.28;53.51;99963.52;1696448;83;21053;-69
2022/07/28 08:41:46;;;;;;;3.95;1.65;;;;;;;22.33;53.39;99961.19;1705214;82;21539;-69
2022/07/28 08:44:15;;;;;;;4.03;1.82;;;;;;;22.38;53.58;99961.03;1694432;83;21346;-70
2022/07/28 08:46:44;;;;;;;1.20;1.10;;;;;;;22.44;53.27;99957.02;1697320;82;20990;-71
2022/07/28 08:49:11;;;;;;;2.83;1.30;;;;;;;22.43;52.70;99955.39;1692604;84;20976;-70
2022/07/28 08:51:37;;;;;;;2.02;1.20;;;;;;;22.46;52.68;99959.66;1696539;82;21007;-70
2022/07/28 08:54:05;;;;;;;1.75;1.07;;;;;;;22.53;51.83;99959.19;1713642;81;21129;-68
2022/07/28 08:56:32;;;;;;;5.33;1.15;;;;;;;22.59;51.81;99957.88;1707663;81;21201;-69
2022/07/28 08:59:00;;;;;;;3.50;1.37;;;;;;;22.66;51.64;99957.41;1717961;82;21040;-70
2022/07/28 09:01:26;;;;;;;1.40;1.22;;;;;;;22.74;50.38;99967.58;1730375;81;21007;-71
2022/07/28 09:03:53;;;;;;;3.70;1.45;;;;;;;22.82;48.60;99944.84;1735705;81;21564;-71
2022/07/28 09:06:20;;;;;;;5.60;1.37;;;;;;;22.87;48.86;99958.39;1702221;81;21237;-68
2022/07/28 09:08:49;;;;;;;1.55;1.32;;;;;;;22.90;48.82;99975.00;1717104;81;20967;-72
2022/07/28 09:11:16;;;;;;;1.42;1.32;;;;;;;22.95;48.53;99959.75;1725375;81;20961;-69
2022/07/28 09:13:43;;;;;;;2.37;1.50;;;;;;;22.99;48.99;99962.08;1711797;82;20966;-70
2022/07/28 09:16:14;;;;;;;4.85;2.42;;;;;;;23.04;48.61;99963.28;1702015;83;21537;-68
2022/07/28 09:18:41;;;;;;;1.15;1.12;;;;;;;23.08;48.90;99962.61;1712574;82;21063;-69
2022/07/28 09:21:14;;;;;;;7.08;1.67;;;;;;;23.16;49.45;99957.70;1702680;82;21544;-69
2022/07/28 09:23:45;;;;;;;4.60;2.08;;;;;;;23.25;48.90;99977.13;1709494;82;21133;-68
2022/07/28 09:26:12;;;;;;;3.25;1.70;;;;;;;23.30;48.11;99963.23;1729830;82;21020;-69
2022/07/28 09:28:59;;;;;;;3.33;1.15;;;;;;;23.33;48.34;99974.91;1707847;81;21059;-70
2022/07/28 09:31:27;;;;;;;2.25;1.82;;;;;;;23.33;48.02;99970.80;1705908;81;25076;-66
2022/07/28 09:34:01;;;;;;;2.17;1.92;;;;;;;23.41;48.28;99994.66;1718855;81;21656;-68
2022/07/28 09:36:40;;;;;;;5.60;1.45;;;;;;;23.46;48.21;99975.86;1706886;82;21364;-83
2022/07/28 09:39:07;;;;;;;3.62;1.67;;;;;;;23.49;48.00;99964.23;1688329;82;21583;-75
2022/07/28 09:41:49;;;;;;;6.30;1.95;;;;;;;23.54;48.20;99964.63;1691440;83;21573;-74
2022/07/28 09:44:20;;;;;;;2.62;1.87;;;;;;;23.61;48.52;99973.95;1699971;82;21075;-74
2022/07/28 09:46:47;;;;;;;3.70;1.67;;;;;;;23.70;46.45;100004.93;1670022;84;22739;-75
2022/07/28 09:49:15;;;;;;;3.45;1.62;;;;;;;23.72;45.92;99984.81;1687697;83;21525;-75
2022/07/28 09:52:02;;;;;;;5.53;2.47;;;;;;;23.75;45.92;99992.39;1709204;81;21081;-75
2022/07/28 09:54:30;;;;;;;1.92;1.27;;;;;;;23.79;46.26;99979.59;1704651;82;21094;-76
2022/07/28 09:56:58;;;;;;;4.45;2.35;;;;;;;23.89;46.61;99968.23;1691955;83;21565;-79
2022/07/28 09:59:41;;;;;;;5.45;1.90;;;;;;;23.97;46.40;99994.64;1707921;83;21249;-80
2022/07/28 10:02:14;;;;;;;4.87;1.37;;;;;;;24.03;46.28;99983.11;1699017;83;21048;-79
2022/07/28 10:04:41;;;;;;;4.17;2.12;;;;;;;24.04;46.71;99970.98;1673278;83;21549;-73
2022/07/28 10:07:15;;;;;;;3.87;2.12;;;;;;;24.11;46.06;99981.47;1709428;82;21083;-80
2022/07/28 10:09:42;;;;;;;4.45;1.90;;;;;;;24.17;46.14;99974.67;1708502;82;21620;-82
2022/07/28 10:12:23;;;;;;;5.33;1.82;;;;;;;24.23;45.74;99971.37;1718773;82;21024;-84
2022/07/28 10:14:54;;;;;;;3.77;1.52;;;;;;;24.25;45.83;99967.73;1674814;84;38663;-82
2022/07/28 10:17:32;;;;;;;4.00;1.80;;;;;;;24.32;45.93;99983.12;1691200;84;21090;-75
2022/07/28 10:20:04;;;;;;;5.33;2.02;;;;;;;24.41;45.40;99990.52;1683883;82;21617;-78
2022/07/28 10:22:36;;;;;;;4.12;1.67;;;;;;;24.50;45.02;99989.89;1718622;82;20980;-73
2022/07/28 10:25:11;;;;;;;2.80;1.75;;;;;;;24.56;44.37;99977.52;1729878;82;21147;-73
2022/07/28 10:27:40;;;;;;;2.40;1.90;;;;;;;24.59;44.93;99975.49;1732989;82;21048;-72
2022/07/28 10:30:09;;;;;;;3.80;1.90;;;;;;;24.58;45.29;99977.44;1719177;81;21034;-74
2022/07/28 10:32:45;;;;;;;2.22;1.75;;;;;;;24.65;43.51;99989.28;1702239;81;21158;-74
2022/07/28 10:35:17;;;;;;;1.95;1.70;;;;;;;24.68;42.25;99981.73;1707600;81;21089;-76
2022/07/28 10:38:03;;;;;;;5.17;2.00;;;;;;;24.65;42.34;99978.28;1729770;82;21561;-75
2022/07/28 10:40:37;;;;;;;4.05;2.17;;;;;;;24.65;42.92;99977.69;1712642;83;20987;-77
2022/07/28 10:43:04;;;;;;;3.27;1.40;;;;;;;24.71;43.11;99974.97;1703028;83;21474;-76
2022/07/28 10:45:37;;;;;;;6.85;2.33;;;;;;;24.81;42.49;99988.89;1697137;84;21621;-79
2022/07/28 10:48:06;;;;;;;5.33;1.60;;;;;;;24.89;41.92;99989.41;1707371;82;21028;-77
2022/07/28 10:50:38;;;;;;;2.85;1.60;;;;;;;24.94;41.62;99978.19;1724181;81;21135;-74
2022/07/28 10:53:05;;;;;;;1.77;1.30;;;;;;;25.01;41.71;99984.53;1712684;82;20989;-74
2022/07/28 10:55:56;;;;;;;3.20;1.92;;;;;;;25.08;41.36;99988.92;1697341;82;21078;-77
2022/07/28 10:58:51;;;;;;;3.42;1.72;;;;;;;25.18;41.65;99999.48;1725500;82;21029;-74
2022/07/28 11:01:39;;;;;;;4.83;1.32;;;;;;;25.27;41.16;99991.97;1723351;81;21071;-69
2022/07/28 11:04:07;;;;;;;2.83;1.42;;;;;;;25.30;40.91;99980.26;1710295;81;21762;-78
2022/07/28 11:06:37;;;;;;;2.72;2.00;;;;;;;25.29;41.21;99977.27;1715851;82;21057;-76
2022/07/28 11:09:20;;;;;;;4.80;1.77;;;;;;;25.34;40.55;99977.05;1717946;82;21191;-76
2022/07/28 11:11:50;;;;;;;;;;;;;;;25.38;40.39;99991.74;1699846;82;21024;-80
2022/07/28 11:14:38;;;;;;;4.25;1.72;;;;;;;25.46;40.32;99984.55;1733035;82;20524;-75
2022/07/28 11:17:11;;;;;;;2.83;1.75;;;;;;;25.52;40.65;99984.53;1732645;82;21688;-78
2022/07/28 11:19:50;;;;;;;2.92;1.57;;;;;;;25.57;40.24;99987.09;1726824;82;20981;-77
2022/07/28 11:22:32;;;;;;;1.82;1.50;;;;;;;25.59;40.31;99967.72;1688038;82;21520;-78
2022/07/28 11:25:03;;;;;;;1.57;1.15;;;;;;;25.62;40.16;99979.98;1719726;82;21522;-79
2022/07/28 11:27:45;;;;;;;2.22;1.60;;;;;;;25.70;39.99;99981.85;1706883;83;21568;-76
2022/07/28 11:30:23;;;;;;;2.80;1.57;;;;;;;25.76;39.94;99965.88;1720580;81;21077;-78
2022/07/28 11:32:55;;;;;;;1.80;1.42;;;;;;;25.90;39.42;99972.64;1687970;84;21527;-81
2022/07/28 11:35:25;;;;;;;5.15;2.02;;;;;;;25.98;39.05;99973.70;1715515;81;20960;-79
2022/07/28 11:38:07;;;;;;;1.72;1.62;;;;;;;26.07;39.26;99955.65;1717783;81;20955;-84
2022/07/28 11:41:01;;;;;;;4.87;1.62;;;;;;;26.18;38.39;99967.81;1707803;82;21107;-76
2022/07/28 11:43:29;;;;;;;2.95;1.55;;;;;;;26.16;37.82;99979.19;1696991;83;21170;-79
2022/07/28 11:46:11;;;;;;;3.67;1.45;;;;;;;26.09;38.12;99966.54;1680534;84;20971;-77
2022/07/28 11:48:43;;;;;;;2.27;1.45;;;;;;;26.12;38.00;99965.87;1692510;83;21011;-73
2022/07/28 11:51:14;;;;;;;3.25;1.55;;;;;;;26.17;38.51;99967.59;1713016;82;20991;-76